Time;durP1;ratioP1;P1;durP2;ratioP2;P2;SDS_P1;SDS_P2;PMS_P1;PMS_P2;Temp;Humidity;BMP_temperature;BMP_pressure;BME280_temperature;BME280_humidity;BME280_pressure;Samples;Min_cycle;Max_cycle;Signal;HPM_P1;HPM_P2
2024/02/29 00:01:32;;;;;;;38.13;23.77;;;;;;;3.54;100.00;98150.38;6309661;28;20197;-48
2024/02/29 00:04:34;;;;;;;38.20;23.73;;;;;;;3.53;100.00;98150.56;6312610;28;20205;-50
2024/02/29 00:07:36;;;;;;;36.10;23.50;;;;;;;3.86;100.00;98154.41;6311613;28;20189;-51
2024/02/29 00:10:38;;;;;;;33.47;21.37;;;;;;;3.85;100.00;98152.78;6297773;28;20287;-52
2024/02/29 00:13:40;;;;;;;31.93;20.03;;;;;;;3.73;100.00;98143.72;6303576;28;20194;-52
2024/02/29 00:16:44;;;;;;;37.43;23.97;;;;;;;3.73;100.00;98146.34;6312808;28;20205;-52
2024/02/29 00:19:47;;;;;;;38.73;24.37;;;;;;;3.84;100.00;98114.25;6310853;28;20675;-47
2024/02/29 00:22:49;;;;;;;37.60;23.23;;;;;;;4.00;100.00;98139.53;6307211;28;20213;-51
2024/02/29 00:25:51;;;;;;;39.40;24.53;;;;;;;4.29;100.00;98138.56;6312256;28;20201;-50
2024/02/29 00:28:53;;;;;;;36.07;22.93;;;;;;;4.12;100.00;98143.28;6307151;28;20199;-49
2024/02/29 00:32:00;;;;;;;33.03;22.37;;;;;;;4.29;100.00;98129.84;6312938;28;20221;-53
2024/02/29 00:35:04;;;;;;;37.67;22.73;;;;;;;4.28;100.00;98136.91;6320148;28;20209;-47
2024/02/29 00:38:06;;;;;;;34.13;21.53;;;;;;;4.49;100.00;98135.28;6310392;28;20198;-51
2024/02/29 00:41:08;;;;;;;31.70;21.37;;;;;;;4.47;100.00;98132.00;6317335;28;20234;-51
2024/02/29 00:44:11;;;;;;;32.50;20.20;;;;;;;4.30;100.00;98129.66;6312119;28;20198;-49
2024/02/29 00:47:13;;;;;;;31.20;20.57;;;;;;;4.28;100.00;98130.84;6310609;28;20199;-47
2024/02/29 00:50:15;;;;;;;25.93;18.67;;;;;;;4.23;100.00;98141.13;6309031;28;20218;-50
2024/02/29 00:53:17;;;;;;;30.10;19.40;;;;;;;4.24;100.00;98137.53;6309145;28;20197;-53
2024/02/29 00:56:19;;;;;;;31.03;19.83;;;;;;;4.25;100.00;98142.59;6313969;28;20697;-50
2024/02/29 00:59:21;;;;;;;28.07;19.67;;;;;;;4.28;100.00;98142.19;6314090;28;20227;-52
2024/02/29 01:02:23;;;;;;;31.00;21.03;;;;;;;4.33;100.00;98133.72;6316474;28;20195;-51
2024/02/29 01:05:25;;;;;;;31.90;21.57;;;;;;;4.32;100.00;98130.28;6297119;28;20267;-49
2024/02/29 01:08:27;;;;;;;28.67;19.70;;;;;;;4.39;100.00;98127.69;6305518;28;20217;-51
2024/02/29 01:11:31;;;;;;;31.73;20.73;;;;;;;4.77;100.00;98128.16;6312789;28;20192;-50
2024/02/29 01:14:34;;;;;;;30.60;19.50;;;;;;;4.74;100.00;98117.19;6310908;28;20220;-50
2024/02/29 01:17:36;;;;;;;29.17;19.43;;;;;;;4.58;100.00;98116.47;6309917;28;20556;-51
2024/02/29 01:20:38;;;;;;;31.13;20.63;;;;;;;4.70;100.00;98113.31;6310444;28;20673;-49
2024/02/29 01:23:40;;;;;;;31.93;19.90;;;;;;;4.63;100.00;98116.72;6311627;28;20204;-51
2024/02/29 01:26:43;;;;;;;31.40;18.70;;;;;;;4.62;100.00;98111.63;6309509;28;20696;-49
2024/02/29 01:29:45;;;;;;;32.57;19.87;;;;;;;4.61;100.00;98108.16;6311623;28;20204;-52
2024/02/29 01:32:47;;;;;;;34.30;21.03;;;;;;;4.63;100.00;98100.88;6296485;28;20196;-50
2024/02/29 01:35:49;;;;;;;35.87;22.03;;;;;;;4.63;100.00;98100.03;6298715;28;20196;-47
2024/02/29 01:38:51;;;;;;;32.93;20.93;;;;;;;4.74;100.00;98104.00;6301322;28;20245;-52
2024/02/29 01:41:55;;;;;;;32.00;20.03;;;;;;;4.85;100.00;98108.72;6311196;28;20227;-51
2024/02/29 01:44:57;;;;;;;30.43;19.43;;;;;;;4.82;100.00;98107.28;6308700;28;20645;-48
2024/02/29 01:48:01;;;;;;;27.77;18.47;;;;;;;4.79;100.00;98099.75;6309289;28;20243;-51
2024/02/29 01:51:05;;;;;;;27.73;19.17;;;;;;;4.81;100.00;98107.47;6312133;28;20860;-50
2024/02/29 01:54:07;;;;;;;27.97;19.33;;;;;;;4.81;100.00;98105.66;6302541;28;21036;-51
2024/02/29 01:57:09;;;;;;;28.93;19.70;;;;;;;4.82;100.00;98102.00;6306244;28;20201;-50
2024/02/29 02:00:12;;;;;;;34.73;20.27;;;;;;;4.83;100.00;98098.38;6306742;28;20196;-52
2024/02/29 02:03:15;;;;;;;28.97;19.67;;;;;;;4.98;100.00;98092.97;6315898;28;20682;-52
2024/02/29 02:06:17;;;;;;;26.77;19.00;;;;;;;4.93;100.00;98087.44;6312972;28;20209;-52
2024/02/29 02:09:19;;;;;;;30.13;19.10;;;;;;;4.95;100.00;98093.34;6309741;28;20212;-50
2024/02/29 02:12:21;;;;;;;29.30;19.07;;;;;;;5.08;100.00;98088.13;6306871;28;20188;-51
2024/02/29 02:15:23;;;;;;;29.53;20.00;;;;;;;5.23;100.00;98087.19;6291246;28;20215;-50
2024/02/29 02:18:25;;;;;;;30.97;18.43;;;;;;;4.94;100.00;98059.22;6289561;28;20201;-49
2024/02/29 02:21:27;;;;;;;24.43;16.87;;;;;;;5.02;100.00;98070.41;6287344;28;20248;-51
2024/02/29 02:24:34;;;;;;;27.70;18.43;;;;;;;5.03;100.00;98073.88;6314981;28;20196;-48
2024/02/29 02:27:39;;;;;;;27.43;18.23;;;;;;;5.09;100.00;98075.75;6299485;28;20219;-50
2024/02/29 02:30:41;;;;;;;25.90;17.70;;;;;;;5.23;100.00;98069.50;6309584;28;20221;-50
2024/02/29 02:33:43;;;;;;;25.13;17.03;;;;;;;5.13;100.00;98075.16;6296541;28;20209;-48
2024/02/29 02:36:46;;;;;;;24.37;17.20;;;;;;;5.11;100.00;98065.78;6307379;28;20867;-52
2024/02/29 02:39:48;;;;;;;24.97;16.27;;;;;;;5.09;100.00;98059.91;6305805;28;20920;-52
2024/02/29 02:42:50;;;;;;;23.40;15.43;;;;;;;5.07;100.00;98053.97;6300167;28;20664;-49
2024/02/29 02:45:52;;;;;;;23.70;16.17;;;;;;;5.08;100.00;98056.44;6305409;28;20344;-52
2024/02/29 02:48:55;;;;;;;24.53;16.67;;;;;;;5.17;100.00;98059.69;6314067;28;20341;-48
2024/02/29 02:51:57;;;;;;;24.23;16.00;;;;;;;5.24;100.00;98052.63;6315809;28;20290;-49
2024/02/29 02:54:59;;;;;;;25.30;16.43;;;;;;;5.18;100.00;98038.41;6303994;28;20190;-52
2024/02/29 02:58:01;;;;;;;22.33;14.87;;;;;;;5.15;100.00;98045.91;6298551;28;20587;-50
2024/02/29 03:01:04;;;;;;;19.67;14.57;;;;;;;5.10;100.00;98040.38;6293478;28;20561;-52
2024/02/29 03:04:06;;;;;;;20.00;13.47;;;;;;;5.12;100.00;98056.84;6288824;28;20223;-53
2024/02/29 03:07:08;;;;;;;23.03;15.90;;;;;;;5.10;100.00;98059.69;6305762;28;20572;-51
2024/02/29 03:10:10;;;;;;;25.60;14.90;;;;;;;5.16;100.00;98052.78;6303161;28;20216;-49
2024/02/29 03:13:13;;;;;;;25.33;15.37;;;;;;;5.12;100.00;98043.63;6302172;28;20195;-51
2024/02/29 03:16:25;;;;;;;21.13;14.10;;;;;;;5.15;100.00;98032.69;6303604;28;20219;-52
2024/02/29 03:19:27;;;;;;;20.37;13.93;;;;;;;5.37;100.00;98041.31;6282852;28;20212;-51
2024/02/29 03:22:30;;;;;;;21.20;14.80;;;;;;;5.22;100.00;98041.47;6295883;28;20200;-50
2024/02/29 03:25:32;;;;;;;21.40;13.57;;;;;;;5.18;100.00;98045.50;6313890;28;20249;-51
2024/02/29 03:28:34;;;;;;;18.57;13.43;;;;;;;5.18;100.00;98043.69;6298615;28;20204;-49
2024/02/29 03:31:36;;;;;;;19.63;13.60;;;;;;;5.15;100.00;98046.69;6302939;28;20667;-50
2024/02/29 03:34:39;;;;;;;17.10;12.47;;;;;;;5.16;100.00;98050.16;6305655;28;20196;-50
2024/02/29 03:37:41;;;;;;;15.20;11.40;;;;;;;4.88;100.00;98000.94;6303570;28;20200;-52
2024/02/29 03:40:44;;;;;;;17.60;12.13;;;;;;;5.15;100.00;98049.34;6306369;28;20205;-50
2024/02/29 03:43:46;;;;;;;19.03;13.13;;;;;;;5.17;100.00;98035.94;6312027;28;20207;-52
2024/02/29 03:46:48;;;;;;;19.20;13.80;;;;;;;5.16;100.00;98036.94;6313243;28;20196;-50
2024/02/29 03:49:50;;;;;;;19.80;11.93;;;;;;;5.21;100.00;98041.63;6301496;28;20211;-48
2024/02/29 03:52:52;;;;;;;18.23;12.70;;;;;;;5.18;100.00;98035.75;6313300;28;20196;-50
2024/02/29 03:55:55;;;;;;;16.83;12.47;;;;;;;5.15;100.00;98022.13;6310624;28;20276;-50
2024/02/29 03:58:57;;;;;;;18.30;12.60;;;;;;;5.06;100.00;98026.75;6309366;28;20194;-53
2024/02/29 04:02:00;;;;;;;19.47;12.43;;;;;;;5.17;100.00;98033.28;6303812;28;20197;-51
2024/02/29 04:05:02;;;;;;;18.77;12.43;;;;;;;5.24;100.00;98025.41;6302445;28;20187;-50
2024/02/29 04:08:11;;;;;;;17.27;12.17;;;;;;;5.34;100.00;98025.84;6306258;28;20200;-49
2024/02/29 04:11:13;;;;;;;17.40;12.17;;;;;;;5.47;100.00;98015.31;6302995;28;20223;-50
2024/02/29 04:14:16;;;;;;;21.50;13.07;;;;;;;5.39;100.00;98016.28;6297402;28;20192;-52
2024/02/29 04:17:18;;;;;;;17.83;12.33;;;;;;;5.32;100.00;98012.84;6303764;28;20207;-51
2024/02/29 04:20:20;;;;;;;19.83;13.00;;;;;;;5.23;100.00;98019.31;6313278;28;20189;-51
2024/02/29 04:23:22;;;;;;;21.13;13.77;;;;;;;5.25;100.00;98009.34;6297853;28;20203;-48
2024/02/29 04:26:24;;;;;;;20.70;13.20;;;;;;;5.16;100.00;98000.78;6306667;28;20226;-50
2024/02/29 04:29:26;;;;;;;24.77;14.73;;;;;;;5.15;100.00;98011.56;6304926;28;20589;-53
2024/02/29 04:32:29;;;;;;;20.93;13.43;;;;;;;5.54;100.00;98007.38;6305099;28;20196;-52
2024/02/29 04:35:31;;;;;;;20.20;13.33;;;;;;;5.28;100.00;98006.31;6305210;28;20197;-50
2024/02/29 04:38:33;;;;;;;19.13;12.63;;;;;;;4.99;100.00;97967.84;6302957;28;20197;-52
2024/02/29 04:41:35;;;;;;;19.43;13.47;;;;;;;5.16;100.00;98002.63;6300684;28;20223;-49
2024/02/29 04:44:37;;;;;;;22.10;14.33;;;;;;;5.06;100.00;98004.81;6313191;28;20212;-49
2024/02/29 04:47:39;;;;;;;21.13;14.03;;;;;;;5.17;100.00;98002.44;6280323;28;20218;-49
2024/02/29 04:50:42;;;;;;;18.97;13.37;;;;;;;5.06;100.00;98003.00;6324017;28;20237;-52
2024/02/29 04:53:44;;;;;;;22.30;14.40;;;;;;;4.96;100.00;98007.03;6304686;28;20208;-51
2024/02/29 04:56:46;;;;;;;20.17;13.80;;;;;;;5.00;100.00;98003.00;6285842;28;20208;-52
2024/02/29 04:59:48;;;;;;;17.63;13.13;;;;;;;4.99;100.00;98006.66;6303659;28;20196;-49
2024/02/29 05:02:50;;;;;;;19.33;13.27;;;;;;;5.16;100.00;98005.25;6305487;28;20193;-51
2024/02/29 05:05:52;;;;;;;20.40;13.53;;;;;;;4.97;100.00;98008.66;6315341;28;20745;-52
2024/02/29 05:08:54;;;;;;;20.77;12.97;;;;;;;5.00;100.00;98021.47;6297677;28;20203;-52
2024/02/29 05:11:57;;;;;;;17.60;12.13;;;;;;;4.97;100.00;98009.47;6311514;28;20294;-53
2024/02/29 05:14:59;;;;;;;24.13;14.97;;;;;;;4.94;100.00;98014.34;6317658;28;20198;-49
2024/02/29 05:18:02;;;;;;;23.23;14.60;;;;;;;5.11;100.00;98005.03;6311272;28;20193;-52
2024/02/29 05:21:04;;;;;;;20.03;13.93;;;;;;;5.04;100.00;98004.22;6311010;28;20200;-49
2024/02/29 05:24:06;;;;;;;19.27;13.97;;;;;;;4.93;100.00;97995.06;6307238;28;20202;-49
2024/02/29 05:27:09;;;;;;;21.00;13.97;;;;;;;5.27;100.00;97995.94;6307248;28;20233;-51
2024/02/29 05:30:11;;;;;;;18.80;13.33;;;;;;;5.08;100.00;98010.75;6294193;28;20285;-48
2024/02/29 05:33:14;;;;;;;19.80;12.70;;;;;;;5.21;100.00;98002.03;6312927;28;20197;-52
2024/02/29 05:36:16;;;;;;;17.23;12.87;;;;;;;5.01;100.00;98002.78;6298484;28;20205;-49
2024/02/29 05:39:18;;;;;;;24.13;14.47;;;;;;;4.93;100.00;97997.69;6310742;28;20196;-49
2024/02/29 05:42:22;;;;;;;20.67;12.43;;;;;;;5.21;100.00;97991.47;6306421;28;20315;-49
2024/02/29 05:45:24;;;;;;;20.00;13.40;;;;;;;5.23;100.00;97984.97;6312191;28;20277;-49
2024/02/29 05:48:26;;;;;;;21.70;13.53;;;;;;;5.37;100.00;97980.53;6307092;28;20217;-50
2024/02/29 05:51:28;;;;;;;20.40;13.70;;;;;;;5.23;100.00;97979.69;6307035;28;20295;-49
2024/02/29 05:54:31;;;;;;;22.20;14.70;;;;;;;5.34;100.00;97981.75;6291148;28;20206;-48
2024/02/29 05:57:34;;;;;;;23.27;14.53;;;;;;;5.17;100.00;97965.47;6305211;28;20560;-50
2024/02/29 06:00:36;;;;;;;24.57;15.50;;;;;;;5.17;100.00;97975.19;6306304;28;20194;-52
2024/02/29 06:03:39;;;;;;;20.90;14.37;;;;;;;5.15;100.00;97975.41;6294371;28;20204;-52
2024/02/29 06:06:42;;;;;;;21.60;14.03;;;;;;;5.18;100.00;97980.28;6307324;28;20274;-53
2024/02/29 06:09:44;;;;;;;20.47;14.63;;;;;;;5.29;100.00;97980.72;6313504;28;20299;-51
2024/02/29 06:12:47;;;;;;;21.43;14.30;;;;;;;5.48;100.00;97979.13;6301789;28;20198;-51
2024/02/29 06:15:50;;;;;;;20.40;13.33;;;;;;;5.42;100.00;97981.56;6306516;28;20238;-48
2024/02/29 06:18:52;;;;;;;25.77;14.47;;;;;;;5.56;100.00;97978.91;6306985;28;20197;-51
2024/02/29 06:21:54;;;;;;;20.80;13.53;;;;;;;5.72;100.00;97973.25;6303225;28;20196;-49
2024/02/29 06:24:56;;;;;;;22.90;13.60;;;;;;;5.73;100.00;97976.69;6312110;28;20196;-53
2024/02/29 06:27:58;;;;;;;21.77;14.17;;;;;;;5.95;100.00;97972.84;6313245;28;20199;-49
2024/02/29 06:31:01;;;;;;;22.17;13.80;;;;;;;5.87;100.00;97965.91;6293797;28;20208;-50
2024/02/29 06:34:03;;;;;;;20.63;13.47;;;;;;;5.74;100.00;97968.56;6294329;28;20246;-50
2024/02/29 06:37:06;;;;;;;21.87;14.73;;;;;;;5.77;100.00;97973.44;6301252;28;20202;-51
2024/02/29 06:40:10;;;;;;;19.80;13.53;;;;;;;5.70;100.00;97968.16;6306568;28;20204;-50
2024/02/29 06:43:14;;;;;;;17.47;12.33;;;;;;;5.71;100.00;97966.31;6304249;28;20232;-50
2024/02/29 06:46:16;;;;;;;20.10;12.27;;;;;;;5.75;100.00;97966.72;6306909;28;20205;-51
2024/02/29 06:49:23;;;;;;;22.03;14.40;;;;;;;5.81;100.00;97968.56;6302292;28;20670;-50
2024/02/29 06:52:25;;;;;;;19.53;13.23;;;;;;;5.85;100.00;97962.66;6283414;28;20192;-53
2024/02/29 06:55:28;;;;;;;21.47;13.70;;;;;;;5.86;100.00;97953.72;6299612;28;20208;-51
2024/02/29 06:58:32;;;;;;;22.73;13.30;;;;;;;6.11;100.00;97974.28;6298061;28;20194;-53
2024/02/29 07:01:36;;;;;;;17.20;12.50;;;;;;;6.11;100.00;97971.63;6302770;28;20205;-51
2024/02/29 07:04:39;;;;;;;23.30;14.57;;;;;;;6.16;100.00;97974.47;6307035;28;20188;-53
2024/02/29 07:07:42;;;;;;;26.23;14.13;;;;;;;6.07;100.00;97936.03;6312626;28;20664;-50
2024/02/29 07:10:44;;;;;;;21.53;13.90;;;;;;;6.29;100.00;97963.84;6305981;28;20281;-50
2024/02/29 07:13:48;;;;;;;20.63;12.93;;;;;;;6.35;100.00;97965.66;6304565;28;20582;-51
2024/02/29 07:16:50;;;;;;;18.20;13.57;;;;;;;6.44;100.00;97977.66;6285340;28;20234;-53
2024/02/29 07:19:52;;;;;;;28.97;18.33;;;;;;;6.53;100.00;97970.28;6310325;28;20275;-51
2024/02/29 07:22:56;;;;;;;25.53;17.57;;;;;;;6.55;100.00;97947.09;6310038;28;20710;-50
2024/02/29 07:26:02;;;;;;;28.70;19.43;;;;;;;6.72;100.00;97961.47;6314362;28;20866;-53
2024/02/29 07:29:04;;;;;;;29.80;20.90;;;;;;;6.67;100.00;97931.34;6308728;28;20211;-52
2024/02/29 07:32:06;;;;;;;32.87;21.10;;;;;;;6.96;100.00;97952.00;6307945;28;20225;-51
2024/02/29 07:35:11;;;;;;;26.87;18.57;;;;;;;7.01;100.00;97951.38;6311871;28;20655;-52
2024/02/29 07:38:14;;;;;;;28.00;19.47;;;;;;;7.02;100.00;97946.88;6295680;28;20199;-53
2024/02/29 07:41:16;;;;;;;29.27;20.43;;;;;;;7.11;100.00;97949.06;6304312;28;20733;-53
2024/02/29 07:44:18;;;;;;;28.00;19.60;;;;;;;7.14;100.00;97953.09;6306510;28;20183;-51
2024/02/29 07:47:20;;;;;;;29.77;20.60;;;;;;;7.19;100.00;97953.28;6305266;28;20208;-52
2024/02/29 07:50:22;;;;;;;29.83;19.23;;;;;;;7.28;100.00;97951.19;6303765;28;20305;-50
2024/02/29 07:53:24;;;;;;;23.90;16.60;;;;;;;7.42;100.00;97947.44;6298998;28;20191;-51
2024/02/29 07:56:26;;;;;;;25.27;17.53;;;;;;;7.66;99.81;97949.28;6295849;28;20210;-50
2024/02/29 07:59:32;;;;;;;24.23;15.90;;;;;;;7.78;99.89;97948.56;6307472;28;20198;-52
2024/02/29 08:02:34;;;;;;;26.33;17.90;;;;;;;7.91;96.51;97951.94;6303404;28;20575;-52
2024/02/29 08:05:38;;;;;;;27.27;18.20;;;;;;;8.01;95.55;97949.59;6299784;28;20206;-51
2024/02/29 08:08:40;;;;;;;26.90;17.63;;;;;;;8.04;93.96;97947.56;6304208;28;20674;-51
2024/02/29 08:11:42;;;;;;;28.73;17.97;;;;;;;7.95;96.19;97945.16;6302705;28;20343;-48
2024/02/29 08:14:44;;;;;;;24.33;16.77;;;;;;;8.09;95.32;97939.75;6302831;28;20764;-51
2024/02/29 08:17:47;;;;;;;26.03;17.30;;;;;;;8.02;96.05;97916.72;6292205;28;20214;-50
2024/02/29 08:20:52;;;;;;;23.87;15.97;;;;;;;8.36;92.36;97937.63;6306113;28;20200;-49
2024/02/29 08:23:55;;;;;;;23.00;15.20;;;;;;;8.49;93.91;97948.13;6299082;28;20283;-52
2024/02/29 08:26:57;;;;;;;22.50;15.37;;;;;;;8.55;92.74;97941.13;6305691;28;20225;-51
2024/02/29 08:29:59;;;;;;;19.73;14.07;;;;;;;8.72;92.60;97942.16;6305082;28;20186;-51
2024/02/29 08:33:01;;;;;;;17.73;11.87;;;;;;;8.98;88.85;97933.81;6302444;28;20304;-52
2024/02/29 08:36:04;;;;;;;17.13;11.60;;;;;;;9.11;87.15;97934.66;6305460;28;20247;-53
2024/02/29 08:39:06;;;;;;;15.80;10.60;;;;;;;9.28;83.50;97930.34;6310702;28;20561;-49
2024/02/29 08:42:11;;;;;;;17.40;10.93;;;;;;;9.37;82.28;97928.19;6311744;28;20259;-49
2024/02/29 08:45:13;;;;;;;16.77;10.90;;;;;;;9.36;81.71;97926.53;6316101;28;20206;-52
2024/02/29 08:48:15;;;;;;;16.23;11.10;;;;;;;9.40;84.12;97925.03;6314702;28;20202;-51
2024/02/29 08:51:18;;;;;;;17.07;11.73;;;;;;;9.57;82.00;97910.06;6317753;28;20560;-48
2024/02/29 08:54:20;;;;;;;15.83;10.90;;;;;;;9.73;82.07;97914.69;6309661;28;20197;-51
2024/02/29 08:57:22;;;;;;;15.73;11.63;;;;;;;9.95;80.29;97914.94;6305310;28;20669;-50
2024/02/29 09:00:25;;;;;;;18.17;11.67;;;;;;;9.98;82.68;97911.81;6313638;28;20193;-50
2024/02/29 09:03:28;;;;;;;20.97;12.63;;;;;;;10.17;81.13;97909.84;6310178;28;20676;-52
2024/02/29 09:06:30;;;;;;;17.27;12.03;;;;;;;10.26;80.45;97905.81;6309702;28;20338;-51
2024/02/29 09:09:42;;;;;;;21.07;14.47;;;;;;;10.24;78.04;97899.88;6305104;28;20669;-49
2024/02/29 09:12:45;;;;;;;17.87;12.93;;;;;;;10.22;78.25;97904.63;6313756;28;20698;-51
2024/02/29 09:15:47;;;;;;;19.43;12.43;;;;;;;10.24;78.75;97896.41;6301247;28;20299;-51
2024/02/29 09:18:49;;;;;;;17.60;12.73;;;;;;;10.27;79.02;97901.28;6298803;28;20690;-50
2024/02/29 09:21:51;;;;;;;18.10;11.53;;;;;;;10.34;78.54;97901.94;6307101;28;20651;-52
2024/02/29 09:24:54;;;;;;;16.70;12.10;;;;;;;10.43;76.76;97892.56;6307257;28;20562;-49
2024/02/29 09:27:56;;;;;;;18.40;12.20;;;;;;;10.55;76.55;97895.22;6309727;28;20670;-47
2024/02/29 09:30:58;;;;;;;15.83;11.00;;;;;;;10.77;74.57;97895.34;6306094;28;20698;-52
2024/02/29 09:34:00;;;;;;;19.00;12.23;;;;;;;10.84;74.62;97886.19;6307392;28;20198;-52
2024/02/29 09:37:02;;;;;;;16.33;12.20;;;;;;;10.75;74.79;97886.81;6303969;28;20657;-51
2024/02/29 09:40:06;;;;;;;16.67;11.90;;;;;;;10.80;76.68;97885.03;6305609;28;20678;-50
2024/02/29 09:43:10;;;;;;;22.87;12.60;;;;;;;10.83;75.99;97886.41;6311479;28;20809;-49
2024/02/29 09:46:12;;;;;;;18.60;12.87;;;;;;;10.83;76.21;97881.06;6307859;28;20275;-52
2024/02/29 09:49:15;;;;;;;17.13;13.10;;;;;;;10.88;76.38;97875.03;6305250;28;20205;-52
2024/02/29 09:52:19;;;;;;;19.30;13.30;;;;;;;10.97;75.97;97869.06;6315191;28;20707;-52
2024/02/29 09:55:22;;;;;;;19.37;13.80;;;;;;;11.03;75.26;97864.63;6311843;28;20275;-50
2024/02/29 09:58:26;;;;;;;19.07;12.43;;;;;;;11.22;74.87;97852.72;6296657;28;20660;-49
2024/02/29 10:01:32;;;;;;;20.27;13.53;;;;;;;11.40;74.72;97841.00;6308362;28;20672;-52
2024/02/29 10:04:35;;;;;;;22.40;14.83;;;;;;;11.76;72.63;97847.69;6310308;28;20186;-52
2024/02/29 10:07:47;;;;;;;21.17;14.80;;;;;;;11.83;71.97;97834.22;6304518;28;20197;-48
2024/02/29 10:10:50;;;;;;;23.80;14.17;;;;;;;11.81;75.28;97817.59;6316217;28;20214;-50
2024/02/29 10:13:57;;;;;;;20.70;14.90;;;;;;;12.16;72.97;97827.16;6294727;28;20337;-52
2024/02/29 10:16:59;;;;;;;21.60;14.53;;;;;;;12.39;71.96;97825.03;6288437;28;20225;-50
2024/02/29 10:20:03;;;;;;;24.97;16.40;;;;;;;12.50;69.87;97817.13;6299235;28;20297;-50
2024/02/29 10:23:12;;;;;;;21.10;14.73;;;;;;;12.40;72.08;97813.28;6303407;28;20205;-49
2024/02/29 10:26:15;;;;;;;26.33;15.43;;;;;;;12.51;72.64;97813.41;6296254;28;20274;-50
2024/02/29 10:29:17;;;;;;;21.40;14.77;;;;;;;12.53;70.26;97812.09;6307767;28;20201;-50
2024/02/29 10:32:20;;;;;;;22.37;14.47;;;;;;;12.51;69.29;97795.53;6306070;28;20206;-49
2024/02/29 10:35:24;;;;;;;20.93;15.27;;;;;;;12.63;69.75;97809.53;6309413;28;20201;-50
2024/02/29 10:38:26;;;;;;;22.30;14.70;;;;;;;12.87;68.79;97810.03;6316232;28;20672;-50
2024/02/29 10:41:31;;;;;;;24.07;14.30;;;;;;;12.94;69.44;97809.81;6313035;28;20372;-51
2024/02/29 10:44:39;;;;;;;23.60;13.80;;;;;;;13.06;69.15;97794.44;6300704;28;20190;-52
2024/02/29 10:48:15;;;;;;;19.93;12.90;;;;;;;13.31;69.61;97804.56;6294395;28;20197;-47
2024/02/29 10:51:32;;;;;;;19.03;13.30;;;;;;;13.34;66.15;97798.69;6308280;28;20289;-51
2024/02/29 10:54:42;;;;;;;18.40;12.70;;;;;;;13.39;65.92;97793.38;6305264;28;20195;-47
2024/02/29 10:58:09;;;;;;;24.73;14.50;;;;;;;13.38;65.21;97788.28;6305276;28;20281;-49
2024/02/29 11:01:13;;;;;;;20.00;13.50;;;;;;;13.37;66.28;97784.00;6299855;28;20310;-53
2024/02/29 11:04:15;;;;;;;21.80;14.73;;;;;;;13.27;65.64;97779.38;6274673;28;20206;-52
2024/02/29 11:07:18;;;;;;;23.20;15.17;;;;;;;13.07;66.37;97769.31;6307150;28;20321;-52
2024/02/29 11:10:22;;;;;;;23.33;13.93;;;;;;;12.96;68.14;97775.63;6298526;28;20566;-51
2024/02/29 11:13:28;;;;;;;22.47;16.70;;;;;;;12.68;68.76;97766.03;6312540;28;20714;-53
2024/02/29 11:16:33;;;;;;;26.93;14.83;;;;;;;12.93;68.33;97760.09;6301868;28;20205;-51
2024/02/29 11:19:35;;;;;;;29.23;15.70;;;;;;;13.02;66.98;97763.91;6305421;28;20202;-52
2024/02/29 11:23:04;;;;;;;23.67;13.73;;;;;;;13.03;67.84;97759.38;6304089;28;20244;-50
2024/02/29 11:26:12;;;;;;;23.43;13.83;;;;;;;13.07;67.65;97755.94;6302669;28;20191;-52
2024/02/29 11:29:15;;;;;;;20.73;15.00;;;;;;;13.24;66.71;97753.13;6287149;28;20216;-51
2024/02/29 11:32:26;;;;;;;23.17;14.13;;;;;;;13.24;69.04;97746.97;6311818;28;20906;-51
2024/02/29 11:35:28;;;;;;;23.43;14.80;;;;;;;13.47;66.18;97735.09;6297477;28;20190;-53
2024/02/29 11:38:34;;;;;;;22.07;14.40;;;;;;;13.40;66.06;97728.09;6296544;28;20193;-53
2024/02/29 11:41:42;;;;;;;25.03;14.80;;;;;;;13.23;66.17;97732.00;6299582;28;20716;-50
2024/02/29 11:44:47;;;;;;;20.83;14.33;;;;;;;13.19;66.94;97731.66;6300626;28;20206;-48
2024/02/29 11:47:49;;;;;;;20.57;14.80;;;;;;;13.24;66.55;97725.56;6307426;28;20194;-49
2024/02/29 11:50:51;;;;;;;19.73;13.97;;;;;;;13.25;66.79;97705.78;6305087;28;20732;-49
2024/02/29 11:53:54;;;;;;;23.17;15.03;;;;;;;13.55;65.32;97718.56;6305986;28;20752;-52
2024/02/29 11:56:56;;;;;;;20.20;13.63;;;;;;;13.63;65.28;97705.47;6281958;28;20574;-51
2024/02/29 11:59:58;;;;;;;18.40;12.73;;;;;;;13.60;65.92;97702.53;6299001;28;20588;-51
2024/02/29 12:03:01;;;;;;;19.80;13.47;;;;;;;13.72;64.32;97707.66;6301179;28;20205;-52
2024/02/29 12:06:04;;;;;;;20.83;13.63;;;;;;;13.62;64.76;97701.19;6298452;28;20683;-52
2024/02/29 12:09:11;;;;;;;23.33;14.00;;;;;;;13.67;66.07;97700.41;6294401;28;20199;-48
2024/02/29 12:12:13;;;;;;;16.67;12.50;;;;;;;13.90;64.47;97677.75;6298692;28;20207;-53
2024/02/29 12:15:15;;;;;;;22.93;13.53;;;;;;;13.98;64.35;97679.88;6305430;28;20198;-49
2024/02/29 12:18:19;;;;;;;16.70;12.60;;;;;;;14.09;63.49;97678.06;6306446;28;20240;-50
2024/02/29 12:21:26;;;;;;;18.63;13.57;;;;;;;14.14;62.20;97668.16;6298919;28;20198;-51
2024/02/29 12:24:31;;;;;;;21.03;13.77;;;;;;;14.18;62.10;97665.75;6304875;28;20797;-50
2024/02/29 12:27:33;;;;;;;22.80;13.13;;;;;;;14.33;61.82;97654.25;6307717;28;20649;-49
2024/02/29 12:30:36;;;;;;;22.83;13.07;;;;;;;14.20;61.79;97629.59;6296699;28;20198;-49
2024/02/29 12:33:40;;;;;;;20.30;13.27;;;;;;;14.17;61.96;97630.09;6294323;28;20231;-49
2024/02/29 12:36:45;;;;;;;21.13;13.67;;;;;;;14.19;62.28;97641.38;6311328;28;20190;-50
2024/02/29 12:39:56;;;;;;;17.57;11.97;;;;;;;14.26;63.12;97640.31;6298769;28;20698;-50
2024/02/29 12:42:58;;;;;;;16.53;11.43;;;;;;;14.43;62.68;97636.31;6321584;28;20713;-52
2024/02/29 12:46:01;;;;;;;18.23;13.03;;;;;;;14.69;61.17;97628.31;6328808;28;20201;-53
2024/02/29 12:49:03;;;;;;;20.87;13.27;;;;;;;14.71;61.52;97629.63;6332811;28;20856;-50
2024/02/29 12:52:06;;;;;;;22.13;13.73;;;;;;;14.60;60.97;97614.63;6331819;28;20705;-50
2024/02/29 12:55:08;;;;;;;19.87;13.17;;;;;;;14.45;61.62;97606.56;6330644;28;20196;-53
2024/02/29 12:58:14;;;;;;;19.33;12.73;;;;;;;14.55;62.43;97608.47;6340357;28;20200;-53
2024/02/29 13:01:16;;;;;;;18.07;12.30;;;;;;;14.70;62.19;97617.28;6339833;28;20192;-48
2024/02/29 13:04:18;;;;;;;19.37;13.10;;;;;;;14.48;61.23;97587.28;6337104;28;20209;-51
2024/02/29 13:07:21;;;;;;;22.37;13.40;;;;;;;14.45;61.79;97596.63;6333970;28;20866;-51
2024/02/29 13:10:23;;;;;;;16.70;12.70;;;;;;;14.41;62.43;97592.88;6329011;28;20651;-50
2024/02/29 13:13:25;;;;;;;18.50;13.03;;;;;;;14.52;61.97;97596.38;6328539;28;20205;-52
2024/02/29 13:16:28;;;;;;;20.67;13.73;;;;;;;14.45;62.04;97577.88;6327920;28;20198;-53
2024/02/29 13:19:30;;;;;;;16.17;11.80;;;;;;;14.49;62.26;97588.09;6329782;28;20573;-49
2024/02/29 13:22:33;;;;;;;19.30;12.80;;;;;;;14.12;63.17;97559.66;6322972;28;20301;-49
2024/02/29 13:25:35;;;;;;;18.53;12.87;;;;;;;14.31;63.79;97586.72;6338623;28;20578;-54
2024/02/29 13:28:38;;;;;;;18.43;13.77;;;;;;;14.23;64.01;97579.22;6304656;28;20225;-51
2024/02/29 13:31:40;;;;;;;23.00;13.83;;;;;;;14.29;63.97;97587.00;6341304;28;20210;-52
2024/02/29 13:34:42;;;;;;;19.43;13.83;;;;;;;14.36;63.96;97579.47;6334090;28;20197;-48
2024/02/29 13:37:46;;;;;;;22.53;13.90;;;;;;;14.36;63.79;97576.00;6332511;28;20192;-49
2024/02/29 13:40:48;;;;;;;19.27;12.67;;;;;;;14.28;63.98;97579.22;6332629;28;20190;-54
2024/02/29 13:43:50;;;;;;;17.60;12.20;;;;;;;14.31;64.67;97570.66;6333512;28;20411;-51
2024/02/29 13:46:52;;;;;;;16.70;11.73;;;;;;;14.29;64.03;97568.25;6338297;28;20887;-51
2024/02/29 13:49:55;;;;;;;19.67;12.33;;;;;;;14.38;64.14;97565.81;6328156;28;20231;-52
2024/02/29 13:52:57;;;;;;;18.30;13.07;;;;;;;14.27;64.27;97554.28;6340396;28;20220;-49
2024/02/29 13:55:59;;;;;;;14.93;11.43;;;;;;;14.28;64.63;97553.22;6321627;28;20205;-50
2024/02/29 13:59:02;;;;;;;19.63;12.60;;;;;;;14.29;63.94;97546.00;6326483;28;20204;-50
2024/02/29 14:02:04;;;;;;;17.97;12.43;;;;;;;14.17;64.52;97547.06;6327160;28;20205;-54